createdAt,value
2022-12-29T08:44:27.756Z,12.50
2022-12-29T08:46:54.900Z,12.60
2022-12-29T08:49:21.935Z,12.60
2022-12-29T08:51:48.959Z,12.70
2022-12-29T08:54:15.908Z,12.70
2022-12-29T08:56:42.916Z,12.70
2022-12-29T08:59:09.913Z,12.80
2022-12-29T09:01:41.368Z,12.70
2022-12-29T09:04:17.605Z,12.70
2022-12-29T09:06:46.258Z,12.80
2022-12-29T09:09:14.090Z,12.80
2022-12-29T09:11:42.251Z,12.80
2022-12-29T09:14:09.305Z,12.90
2022-12-29T09:16:37.085Z,12.90
2022-12-29T09:19:04.278Z,12.90
2022-12-29T09:21:31.295Z,12.90
2022-12-29T09:23:58.335Z,13.00
2022-12-29T09:26:25.282Z,13.00
2022-12-29T09:28:52.299Z,13.00
2022-12-29T09:31:19.386Z,13.10
2022-12-29T09:33:46.559Z,13.00
2022-12-29T09:36:13.608Z,12.90
2022-12-29T09:38:40.598Z,13.00
2022-12-29T09:41:23.492Z,13.00
2022-12-29T09:44:07.653Z,13.00
2022-12-29T09:46:49.044Z,13.00
2022-12-29T09:49:43.337Z,12.90
2022-12-29T09:52:33.811Z,12.90
2022-12-29T09:55:13.789Z,12.90
2022-12-29T09:57:50.138Z,12.90
2022-12-29T10:00:24.111Z,12.90
2022-12-29T10:05:50.968Z,13.00
2022-12-29T10:08:41.093Z,13.10
2022-12-29T10:11:36.981Z,13.10
2022-12-29T10:17:06.218Z,13.20
2022-12-29T10:19:48.690Z,13.30
2022-12-29T10:22:29.453Z,13.30
2022-12-29T10:25:03.595Z,13.20
2022-12-29T10:27:34.012Z,13.20
2022-12-29T10:30:03.573Z,13.10
2022-12-29T10:32:39.717Z,13.10
2022-12-29T10:35:17.488Z,13.10
2022-12-29T10:37:58.215Z,12.90
2022-12-29T10:40:48.379Z,12.80
2022-12-29T10:43:33.700Z,12.70
2022-12-29T10:46:06.502Z,12.80
2022-12-29T10:48:36.305Z,12.90
2022-12-29T10:51:09.533Z,13.00
2022-12-29T10:54:00.844Z,13.00
2022-12-29T10:56:47.320Z,13.00
2022-12-29T10:59:28.932Z,13.00
2022-12-29T11:02:07.818Z,12.80
2022-12-29T11:05:06.271Z,12.70
2022-12-29T11:07:33.411Z,12.60
2022-12-29T11:10:22.624Z,12.60
2022-12-29T11:13:02.992Z,12.60
2022-12-29T11:15:51.034Z,12.60
2022-12-29T11:18:47.812Z,12.70
2022-12-29T11:21:43.115Z,12.70
2022-12-29T11:24:45.977Z,12.60
2022-12-29T11:27:25.707Z,12.70
2022-12-29T11:29:55.017Z,12.80
2022-12-29T11:32:28.871Z,12.90
2022-12-29T11:34:59.758Z,12.90
2022-12-29T11:37:40.705Z,13.00
2022-12-29T11:40:21.832Z,13.00
2022-12-29T11:42:57.569Z,13.00
2022-12-29T11:45:28.212Z,13.00
2022-12-29T11:48:00.289Z,13.00
2022-12-29T11:50:34.308Z,13.00
2022-12-29T11:53:45.216Z,13.10
2022-12-29T11:56:17.591Z,13.00
2022-12-29T11:58:45.109Z,13.00
2022-12-29T12:01:22.145Z,12.90
2022-12-29T12:04:04.439Z,12.80
2022-12-29T12:06:41.771Z,12.90
2022-12-29T12:09:48.470Z,12.80
2022-12-29T12:12:47.441Z,12.70
2022-12-29T12:15:32.932Z,12.40
2022-12-29T12:18:24.132Z,12.20
2022-12-29T12:21:02.179Z,12.30
2022-12-29T12:24:04.912Z,12.30
2022-12-29T12:26:45.134Z,12.30
2022-12-29T12:29:21.996Z,12.40
2022-12-29T12:31:58.403Z,12.40
2022-12-29T12:34:39.404Z,12.30
2022-12-29T12:37:46.604Z,12.20
2022-12-29T12:40:50.081Z,12.10
2022-12-29T12:43:29.443Z,12.00
2022-12-29T12:46:33.023Z,12.00
2022-12-29T12:49:18.289Z,12.00
2022-12-29T12:52:05.959Z,12.00
2022-12-29T12:54:51.175Z,12.10
2022-12-29T12:58:21.096Z,12.10
2022-12-29T13:01:19.943Z,12.20
2022-12-29T13:04:17.836Z,12.20
2022-12-29T13:07:08.803Z,12.20
2022-12-29T13:09:44.690Z,12.30
2022-12-29T13:12:27.256Z,12.40
2022-12-29T13:15:07.689Z,12.50
2022-12-29T13:17:58.800Z,12.60
2022-12-29T13:20:44.815Z,12.60
2022-12-29T13:23:32.906Z,12.60
2022-12-29T13:26:22.232Z,12.50
2022-12-29T13:29:30.718Z,12.50
2022-12-29T13:32:29.924Z,12.50
2022-12-29T13:35:12.492Z,12.60
2022-12-29T13:38:24.224Z,12.60
2022-12-29T13:41:05.075Z,12.60
2022-12-29T13:43:35.490Z,12.50
2022-12-29T13:46:26.034Z,12.40
2022-12-29T13:48:59.727Z,12.40
2022-12-29T13:51:28.592Z,12.50
2022-12-29T13:54:13.626Z,12.40
2022-12-29T13:57:24.140Z,12.40
2022-12-29T14:00:19.633Z,12.30
2022-12-29T14:02:46.765Z,12.30
2022-12-29T14:05:22.639Z,12.30
2022-12-29T14:08:04.594Z,12.30
2022-12-29T14:10:51.763Z,12.30
2022-12-29T14:13:24.853Z,12.30
2022-12-29T14:15:59.923Z,12.20
2022-12-29T14:18:30.612Z,12.30
2022-12-29T14:21:23.699Z,12.30
2022-12-29T14:23:52.315Z,12.30
2022-12-29T14:26:36.434Z,12.30
2022-12-29T14:29:25.335Z,12.30
2022-12-29T14:31:53.662Z,12.30
2022-12-29T14:34:28.277Z,12.30
2022-12-29T14:37:03.610Z,12.20
2022-12-29T14:39:44.031Z,12.20
2022-12-29T14:42:11.007Z,12.10
2022-12-29T14:44:49.812Z,12.20
2022-12-29T14:47:31.819Z,12.20
2022-12-29T14:50:14.029Z,12.20
2022-12-29T14:52:52.998Z,12.20
2022-12-29T14:55:37.616Z,12.20
2022-12-29T14:58:14.082Z,12.20
2022-12-29T15:00:42.739Z,12.20
2022-12-29T15:03:18.543Z,12.20
2022-12-29T15:05:50.688Z,12.10
2022-12-29T15:08:25.913Z,12.10
2022-12-29T15:11:00.166Z,12.00
2022-12-29T15:13:37.698Z,12.10
2022-12-29T15:16:06.048Z,12.00
2022-12-29T15:18:34.391Z,12.00
2022-12-29T15:21:08.009Z,12.10
2022-12-29T15:23:38.503Z,12.00
2022-12-29T15:26:08.340Z,12.00
2022-12-29T15:28:43.796Z,12.00
2022-12-29T15:31:29.472Z,12.00
2022-12-29T15:34:12.986Z,12.00
2022-12-29T15:36:42.490Z,12.00
2022-12-29T15:39:30.592Z,12.00
2022-12-29T15:42:06.416Z,12.00
2022-12-29T15:44:41.216Z,12.00
2022-12-29T15:47:20.718Z,12.00
2022-12-29T15:49:54.395Z,12.00
2022-12-29T15:52:23.594Z,12.10
2022-12-29T16:02:20.271Z,11.10
2022-12-29T16:36:02.805Z,9.90
2022-12-29T16:38:35.307Z,9.90
2022-12-29T16:41:03.883Z,9.90
2022-12-29T16:43:43.444Z,9.90
2022-12-29T16:46:28.407Z,9.90
2022-12-29T16:48:57.538Z,9.70
2022-12-29T16:51:37.544Z,9.50
2022-12-29T16:54:05.748Z,9.30
2022-12-29T16:56:37.280Z,9.30
2022-12-29T16:59:26.931Z,9.30
2022-12-29T17:01:54.104Z,9.40
2022-12-29T17:04:21.158Z,9.40
2022-12-29T17:14:56.271Z,9.50
2022-12-29T17:17:33.548Z,9.60
2022-12-29T17:22:46.575Z,9.50
2022-12-29T17:27:51.399Z,9.50
2022-12-29T17:30:27.074Z,9.30
2022-12-29T17:33:09.055Z,9.30
2022-12-29T17:35:36.385Z,9.20
2022-12-29T17:55:37.519Z,9.00
2022-12-29T17:58:32.837Z,9.00
2022-12-29T18:01:02.188Z,8.90
2022-12-29T18:03:34.483Z,9.00
2022-12-29T18:08:30.487Z,9.00
2022-12-29T18:10:57.811Z,9.00
2022-12-29T18:13:40.452Z,9.00
2022-12-29T18:16:13.599Z,9.00
2022-12-29T18:18:40.576Z,8.90
2022-12-29T18:21:15.687Z,9.00
2022-12-29T18:23:42.879Z,9.00
2022-12-29T18:26:23.933Z,9.00
2022-12-29T18:28:55.396Z,9.10
2022-12-29T18:31:26.797Z,9.10
2022-12-29T18:33:54.805Z,9.10
2022-12-29T18:36:22.831Z,9.10
2022-12-29T18:38:54.601Z,9.10
2022-12-29T18:43:57.882Z,9.00
2022-12-29T18:46:25.404Z,9.00
2022-12-29T18:48:53.437Z,9.00
2022-12-29T18:51:23.931Z,8.90
2022-12-29T18:53:54.480Z,8.90
2022-12-29T18:56:23.148Z,8.90
2022-12-29T19:01:27.760Z,8.90
2022-12-29T19:03:55.245Z,8.90
2022-12-29T19:06:22.344Z,8.90
2022-12-29T19:08:50.113Z,8.90
2022-12-29T19:16:21.400Z,8.80
2022-12-29T19:19:05.728Z,8.80
2022-12-29T19:21:36.441Z,8.80
2022-12-29T19:24:03.516Z,8.70
2022-12-29T19:26:34.690Z,8.80
2022-12-29T19:29:02.681Z,8.70
